createdAt,value
2022-09-04T00:02:58.832Z,9.70
2022-09-04T00:05:42.955Z,8.70
2022-09-04T00:08:40.643Z,8.80
2022-09-04T00:11:13.370Z,9.20
2022-09-04T00:13:52.012Z,9.30
2022-09-04T00:16:27.645Z,9.00
2022-09-04T00:18:58.915Z,8.40
2022-09-04T00:21:51.356Z,9.90
2022-09-04T00:24:24.462Z,8.60
2022-09-04T00:27:01.540Z,8.40
2022-09-04T00:29:28.269Z,7.70
2022-09-04T00:32:07.714Z,7.70
2022-09-04T00:35:02.935Z,8.00
2022-09-04T00:37:35.739Z,8.80
2022-09-04T00:40:31.403Z,8.20
2022-09-04T00:43:06.935Z,7.60
2022-09-04T00:45:56.479Z,7.20
2022-09-04T00:48:58.021Z,8.10
2022-09-04T00:51:52.204Z,7.50
2022-09-04T00:54:22.088Z,8.30
2022-09-04T00:57:13.564Z,8.30
2022-09-04T01:00:08.606Z,7.80
2022-09-04T01:02:56.593Z,7.30
2022-09-04T01:05:44.285Z,8.00
2022-09-04T01:08:49.627Z,7.50
2022-09-04T01:11:47.397Z,8.60
2022-09-04T01:14:55.731Z,7.20
2022-09-04T01:17:38.616Z,7.60
2022-09-04T01:20:26.417Z,7.80
2022-09-04T01:23:11.231Z,7.60
2022-09-04T01:25:59.416Z,7.60
2022-09-04T01:28:48.071Z,7.10
2022-09-04T01:31:40.391Z,7.70
2022-09-04T01:34:13.656Z,8.20
2022-09-04T01:36:55.260Z,8.30
2022-09-04T01:39:32.977Z,7.70
2022-09-04T01:42:21.332Z,7.50
2022-09-04T01:44:50.083Z,6.70
2022-09-04T01:47:47.806Z,6.90
2022-09-04T01:50:27.338Z,7.80
2022-09-04T01:53:12.468Z,8.00
2022-09-04T01:55:57.024Z,8.30
2022-09-04T01:58:45.189Z,7.50
2022-09-04T02:01:30.596Z,7.40
2022-09-04T02:04:11.511Z,7.00
2022-09-04T02:06:52.479Z,7.10
2022-09-04T02:09:38.058Z,8.20
2022-09-04T02:12:37.466Z,7.60
2022-09-04T02:15:38.934Z,7.90
2022-09-04T02:18:22.736Z,8.30
2022-09-04T02:21:01.490Z,7.80
2022-09-04T02:23:54.047Z,7.90
2022-09-04T02:26:29.990Z,7.90
2022-09-04T02:29:22.944Z,8.20
2022-09-04T02:32:01.668Z,7.90
2022-09-04T02:34:47.260Z,7.80
2022-09-04T02:37:28.795Z,7.90
2022-09-04T02:40:11.676Z,7.90
2022-09-04T02:42:44.037Z,8.20
2022-09-04T02:45:36.585Z,7.30
2022-09-04T02:48:28.102Z,7.80
2022-09-04T02:51:32.667Z,7.90
2022-09-04T02:54:09.716Z,7.60
2022-09-04T02:56:45.983Z,8.50
2022-09-04T02:59:39.089Z,7.90
2022-09-04T03:02:17.610Z,7.20
2022-09-04T03:05:25.042Z,7.90
2022-09-04T03:08:14.048Z,7.70
2022-09-04T03:11:09.184Z,7.80
2022-09-04T03:13:53.482Z,8.40
2022-09-04T03:16:38.473Z,8.40
2022-09-04T03:19:20.614Z,9.70
2022-09-04T03:22:10.418Z,8.20
2022-09-04T03:24:49.278Z,7.50
2022-09-04T03:27:18.569Z,8.00
2022-09-04T03:30:01.207Z,8.10
2022-09-04T03:32:32.192Z,8.10
2022-09-04T03:35:04.529Z,8.50
2022-09-04T03:37:47.290Z,7.90
2022-09-04T03:40:27.436Z,7.90
2022-09-04T03:42:54.278Z,7.70
2022-09-04T03:45:55.006Z,8.00
2022-09-04T03:48:50.992Z,8.00
2022-09-04T03:51:24.031Z,7.80
2022-09-04T03:54:05.816Z,7.10
2022-09-04T03:57:14.609Z,7.50
2022-09-04T04:00:12.561Z,8.50
2022-09-04T04:03:23.393Z,9.20
2022-09-04T04:06:10.560Z,7.80
2022-09-04T04:09:18.219Z,7.70
2022-09-04T04:12:12.454Z,7.90
2022-09-04T04:15:28.699Z,8.30
2022-09-04T04:18:01.762Z,8.80
2022-09-04T04:20:59.768Z,8.40
2022-09-04T04:23:46.980Z,8.30
2022-09-04T04:26:43.317Z,7.90
2022-09-04T04:29:46.922Z,7.70
2022-09-04T04:32:26.069Z,8.10
2022-09-04T04:35:04.472Z,8.10
2022-09-04T04:37:51.385Z,8.20
2022-09-04T04:40:31.868Z,8.50
2022-09-04T04:43:20.322Z,7.30
2022-09-04T04:45:55.227Z,7.80
2022-09-04T04:48:47.569Z,7.40
2022-09-04T04:51:17.374Z,7.60
2022-09-04T04:54:15.935Z,7.70
2022-09-04T04:57:09.192Z,8.00
2022-09-04T04:59:55.434Z,7.50
2022-09-04T05:02:35.119Z,7.80
2022-09-04T05:05:23.003Z,6.80
2022-09-04T05:08:08.422Z,7.40
2022-09-04T05:10:45.778Z,7.30
2022-09-04T05:13:34.551Z,7.60
2022-09-04T05:16:32.756Z,8.00
2022-09-04T05:19:23.298Z,7.70
2022-09-04T05:21:59.461Z,7.30
2022-09-04T05:24:35.313Z,6.90
2022-09-04T05:27:30.872Z,7.00
2022-09-04T05:30:05.359Z,7.40
2022-09-04T05:32:46.545Z,7.30
2022-09-04T05:35:22.512Z,6.60
2022-09-04T05:38:08.392Z,6.80
2022-09-04T05:40:54.286Z,7.20
2022-09-04T05:44:09.885Z,6.70
2022-09-04T05:47:08.443Z,6.60
2022-09-04T05:50:04.204Z,6.60
2022-09-04T05:52:44.729Z,7.30
2022-09-04T05:55:24.272Z,6.50
2022-09-04T05:57:54.595Z,6.20
2022-09-04T06:00:22.155Z,6.70
2022-09-04T06:03:14.973Z,6.50
2022-09-04T06:05:58.150Z,6.90
2022-09-04T06:08:46.877Z,7.20
2022-09-04T06:11:51.007Z,6.90
2022-09-04T06:14:42.311Z,6.80
2022-09-04T06:17:28.248Z,6.40
2022-09-04T06:20:13.686Z,6.20
2022-09-04T06:23:07.073Z,5.80
2022-09-04T06:26:02.277Z,6.30
2022-09-04T06:28:47.731Z,6.50
2022-09-04T06:31:20.789Z,6.50
2022-09-04T06:34:08.873Z,6.00
2022-09-04T06:36:55.444Z,6.40
2022-09-04T06:39:32.177Z,6.20
2022-09-04T06:42:11.181Z,5.60
2022-09-04T06:45:07.752Z,6.00
2022-09-04T06:47:56.880Z,5.20
2022-09-04T06:50:41.682Z,6.00
2022-09-04T06:53:27.240Z,6.10
2022-09-04T06:56:32.360Z,6.10
2022-09-04T06:59:35.281Z,6.80
2022-09-04T07:02:27.223Z,6.00
2022-09-04T07:05:24.573Z,5.30
2022-09-04T07:08:20.216Z,5.80
2022-09-04T07:11:16.737Z,6.00
2022-09-04T07:14:03.958Z,6.30
2022-09-04T07:16:49.032Z,6.20
2022-09-04T07:19:49.062Z,5.90
2022-09-04T07:23:05.520Z,5.90
2022-09-04T07:25:40.213Z,5.70
2022-09-04T07:28:23.764Z,5.50
2022-09-04T07:31:10.174Z,5.30
2022-09-04T07:33:47.258Z,5.80
2022-09-04T07:36:44.633Z,6.20
2022-09-04T07:39:30.521Z,6.10
2022-09-04T07:42:17.365Z,5.70
2022-09-04T07:45:01.245Z,5.90
2022-09-04T07:47:38.750Z,6.50
2022-09-04T07:50:12.951Z,6.30
2022-09-04T07:53:11.171Z,6.10
2022-09-04T07:55:46.498Z,5.90
2022-09-04T07:58:27.945Z,6.10
2022-09-04T08:01:13.520Z,6.90
2022-09-04T08:03:59.334Z,6.30
2022-09-04T08:06:33.328Z,6.00
2022-09-04T08:09:17.682Z,6.30
2022-09-04T08:11:57.840Z,5.80
2022-09-04T08:14:28.167Z,6.20
2022-09-04T08:17:24.315Z,7.40
2022-09-04T08:20:00.233Z,6.20
2022-09-04T08:22:47.534Z,6.70
2022-09-04T08:25:29.519Z,5.70
2022-09-04T08:28:33.301Z,6.80
2022-09-04T08:31:11.676Z,7.20
2022-09-04T08:34:05.786Z,6.10
2022-09-04T08:37:03.439Z,5.80
2022-09-04T08:39:57.250Z,5.60
2022-09-04T08:42:31.008Z,6.20
2022-09-04T08:45:42.080Z,6.60
2022-09-04T08:48:41.692Z,5.80
2022-09-04T08:51:46.042Z,5.90
2022-09-04T08:54:41.412Z,5.60
2022-09-04T08:57:31.086Z,5.80
2022-09-04T09:00:34.145Z,6.00
2022-09-04T09:03:37.521Z,5.70
2022-09-04T09:06:46.346Z,5.60
2022-09-04T09:09:37.878Z,5.90
2022-09-04T09:12:11.065Z,4.90
2022-09-04T09:15:08.226Z,5.60
2022-09-04T09:18:00.996Z,6.20
2022-09-04T09:20:38.069Z,5.80
2022-09-04T09:23:19.705Z,5.40
2022-09-04T09:26:18.929Z,6.50
2022-09-04T09:29:05.473Z,5.70
2022-09-04T09:32:07.148Z,5.60
2022-09-04T09:35:09.512Z,5.80
2022-09-04T09:38:04.283Z,5.30
2022-09-04T09:40:35.098Z,6.00
2022-09-04T09:43:43.052Z,5.60
2022-09-04T09:46:24.001Z,5.20
2022-09-04T09:49:32.599Z,5.40
2022-09-04T09:52:30.357Z,5.60
2022-09-04T09:55:43.279Z,5.10
2022-09-04T09:58:46.055Z,5.80
2022-09-04T10:01:26.078Z,5.50
2022-09-04T10:04:24.402Z,5.00
2022-09-04T10:07:36.624Z,5.70
2022-09-04T10:10:46.881Z,5.40
2022-09-04T10:13:24.642Z,5.30
2022-09-04T10:15:59.368Z,5.30
2022-09-04T10:18:42.131Z,5.00
2022-09-04T10:21:30.177Z,5.60
2022-09-04T10:24:16.944Z,5.30
2022-09-04T10:27:19.862Z,5.10
2022-09-04T10:30:09.031Z,4.90
2022-09-04T10:33:18.512Z,5.00
2022-09-04T10:35:56.293Z,4.90
2022-09-04T10:39:08.445Z,5.80
2022-09-04T10:41:49.720Z,4.70
2022-09-04T10:45:02.489Z,4.50
2022-09-04T10:48:06.834Z,4.60
2022-09-04T10:51:11.368Z,4.90
2022-09-04T10:54:11.195Z,4.60
2022-09-04T10:57:03.957Z,4.80
2022-09-04T10:59:59.352Z,4.40
2022-09-04T11:02:51.393Z,4.60
2022-09-04T11:05:25.333Z,4.80
2022-09-04T11:08:16.799Z,4.60
2022-09-04T11:10:47.828Z,4.60
2022-09-04T11:13:51.429Z,5.40
2022-09-04T11:16:49.037Z,4.60
2022-09-04T11:19:43.297Z,4.60
2022-09-04T11:22:42.012Z,5.00
2022-09-04T11:25:47.475Z,4.80
2022-09-04T11:28:46.145Z,4.90
2022-09-04T11:31:30.220Z,4.10
2022-09-04T11:34:40.558Z,4.40
2022-09-04T11:37:40.939Z,4.40
2022-09-04T11:40:44.847Z,4.60
2022-09-04T11:43:24.625Z,4.40
2022-09-04T11:46:30.640Z,4.80
2022-09-04T11:49:09.422Z,4.70
2022-09-04T11:51:48.678Z,4.80
2022-09-04T11:54:38.828Z,4.40
2022-09-04T11:57:09.243Z,4.30
2022-09-04T12:00:11.195Z,4.20
2022-09-04T12:03:26.208Z,4.50
2022-09-04T12:06:24.875Z,3.80
2022-09-04T12:08:57.815Z,4.40
2022-09-04T12:11:36.798Z,3.80
2022-09-04T12:14:09.071Z,4.30
2022-09-04T12:17:06.274Z,4.40
2022-09-04T12:19:40.065Z,4.10
2022-09-04T12:22:19.708Z,4.20
2022-09-04T12:25:05.789Z,4.50
2022-09-04T12:28:07.074Z,4.40
2022-09-04T12:30:49.054Z,4.00
2022-09-04T12:33:46.104Z,4.00
2022-09-04T12:36:32.531Z,4.30
2022-09-04T12:39:39.703Z,4.30
2022-09-04T12:42:33.672Z,4.10
2022-09-04T12:45:26.537Z,4.40
2022-09-04T12:48:28.576Z,4.40
2022-09-04T12:51:12.882Z,4.20
2022-09-04T12:53:58.460Z,3.70
2022-09-04T12:56:44.867Z,3.80
2022-09-04T12:59:34.330Z,4.90
2022-09-04T13:02:20.184Z,4.00
2022-09-04T13:05:06.310Z,5.00
2022-09-04T13:07:56.594Z,4.80
2022-09-04T13:10:47.329Z,3.60
2022-09-04T13:13:51.444Z,4.10
2022-09-04T13:16:33.923Z,3.70
2022-09-04T13:19:36.607Z,3.90
2022-09-04T13:22:25.001Z,4.50
2022-09-04T13:25:10.888Z,3.90
2022-09-04T13:28:10.743Z,4.90
2022-09-04T13:31:13.666Z,3.90
2022-09-04T13:34:04.717Z,3.80
2022-09-04T13:36:55.633Z,3.60
2022-09-04T13:39:40.642Z,4.10
2022-09-04T13:42:42.875Z,4.20
2022-09-04T13:45:22.825Z,3.70
2022-09-04T13:47:59.302Z,3.80
2022-09-04T13:50:32.215Z,4.00
2022-09-04T13:53:22.156Z,3.70
2022-09-04T13:55:54.153Z,3.60
2022-09-04T13:58:27.860Z,3.20
2022-09-04T14:00:58.755Z,3.40
2022-09-04T14:03:44.652Z,3.60
2022-09-04T14:06:16.654Z,3.50
2022-09-04T14:09:04.232Z,3.40
2022-09-04T14:12:07.422Z,3.40
2022-09-04T14:14:37.340Z,3.30
2022-09-04T14:17:06.807Z,3.20
2022-09-04T14:19:48.954Z,3.50
2022-09-04T14:22:40.101Z,3.30
2022-09-04T14:25:31.733Z,2.80
2022-09-04T14:28:22.358Z,2.80
2022-09-04T14:31:10.573Z,2.80
2022-09-04T14:33:46.035Z,2.80
2022-09-04T14:36:26.188Z,2.60
2022-09-04T14:39:18.053Z,2.70
2022-09-04T14:42:00.467Z,2.90
2022-09-04T14:44:46.753Z,3.00
2022-09-04T14:47:26.308Z,2.50
2022-09-04T14:49:55.808Z,3.00
2022-09-04T14:52:28.177Z,2.80
2022-09-04T14:54:57.685Z,2.60
2022-09-04T14:57:59.420Z,2.90
2022-09-04T15:00:29.226Z,3.00
2022-09-04T15:03:08.699Z,2.80
2022-09-04T15:05:50.809Z,2.60
2022-09-04T15:08:31.748Z,2.50
2022-09-04T15:11:08.644Z,2.60
2022-09-04T15:14:04.604Z,2.60
2022-09-04T15:16:32.752Z,2.90
2022-09-04T15:19:04.950Z,2.90
2022-09-04T15:21:55.813Z,2.90
2022-09-04T15:24:49.275Z,2.90
2022-09-04T15:27:30.173Z,2.50
2022-09-04T15:30:09.118Z,2.60
2022-09-04T15:32:42.967Z,2.50
2022-09-04T15:35:33.637Z,2.70
2022-09-04T15:38:25.826Z,2.80
2022-09-04T15:41:16.810Z,2.80
2022-09-04T15:44:09.667Z,2.40
2022-09-04T15:46:56.940Z,2.60
2022-09-04T15:49:47.932Z,2.60
2022-09-04T15:52:42.210Z,2.40
2022-09-04T15:55:25.431Z,2.40
2022-09-04T15:58:08.713Z,2.50
2022-09-04T16:00:40.652Z,2.80
2022-09-04T16:03:27.855Z,2.70
2022-09-04T16:06:16.830Z,3.00
2022-09-04T16:08:51.033Z,3.10
2022-09-04T16:11:28.795Z,3.00
2022-09-04T16:14:05.302Z,2.80
2022-09-04T16:16:39.908Z,2.40
2022-09-04T16:19:24.369Z,2.60
2022-09-04T16:22:18.734Z,3.00
2022-09-04T16:24:57.321Z,2.80
2022-09-04T16:27:40.441Z,2.70
2022-09-04T16:30:33.861Z,2.70
2022-09-04T16:33:24.998Z,2.70
2022-09-04T16:36:11.499Z,3.00
2022-09-04T16:39:12.930Z,3.30
2022-09-04T16:42:11.755Z,3.00
2022-09-04T16:44:43.943Z,2.70
2022-09-04T16:47:27.668Z,2.90
2022-09-04T16:50:13.134Z,3.10
2022-09-04T16:52:40.061Z,3.20
2022-09-04T16:55:14.895Z,3.40
2022-09-04T16:58:02.424Z,3.70
2022-09-04T17:00:58.274Z,3.50
2022-09-04T17:04:13.203Z,3.00
2022-09-04T17:07:03.221Z,3.00
2022-09-04T17:10:31.431Z,3.10
2022-09-04T17:13:39.795Z,2.90
2022-09-04T17:16:36.825Z,2.60
2022-09-04T17:19:05.043Z,2.60
2022-09-04T17:29:04.838Z,2.90
2022-09-04T17:29:10.108Z,3.00
2022-09-04T17:29:16.015Z,2.80
2022-09-04T17:31:59.583Z,2.90
2022-09-04T17:40:34.822Z,2.60
2022-09-04T17:40:48.577Z,2.80
2022-09-04T17:41:40.761Z,2.90
2022-09-04T17:44:26.208Z,2.70
2022-09-04T17:47:17.358Z,3.00
2022-09-04T17:49:50.487Z,2.70
2022-09-04T17:52:37.255Z,2.80
2022-09-04T17:55:13.742Z,3.10
2022-09-04T17:58:09.296Z,2.40
2022-09-04T18:01:15.106Z,2.90
2022-09-04T18:04:21.526Z,3.00
2022-09-04T18:07:29.966Z,3.20
2022-09-04T18:10:47.564Z,3.40
2022-09-04T18:13:43.391Z,3.80
2022-09-04T18:16:25.901Z,4.40
2022-09-04T18:19:14.179Z,4.70
2022-09-04T18:21:59.221Z,5.00
2022-09-04T18:24:35.909Z,4.60
2022-09-04T18:27:17.043Z,4.80
2022-09-04T18:31:48.243Z,4.20
2022-09-04T18:37:11.131Z,4.00
2022-09-04T18:37:23.854Z,4.70
2022-09-04T18:39:12.586Z,4.80
2022-09-04T18:50:15.805Z,3.40
2022-09-04T18:50:35.290Z,3.50
2022-09-04T18:50:39.475Z,3.00
2022-09-04T18:54:00.811Z,3.40
2022-09-04T18:56:50.147Z,3.40
2022-09-04T18:59:46.440Z,3.40
2022-09-04T19:02:33.863Z,3.50
2022-09-04T19:05:10.839Z,3.10
2022-09-04T19:07:46.838Z,3.50
2022-09-04T19:10:15.943Z,3.20
2022-09-04T19:12:49.838Z,4.00
2022-09-04T19:15:37.005Z,3.70
2022-09-04T19:18:22.642Z,3.90
2022-09-04T19:20:58.365Z,4.00
2022-09-04T19:23:54.414Z,3.90
2022-09-04T19:26:46.367Z,4.20
2022-09-04T19:29:20.766Z,4.20
2022-09-04T19:32:09.366Z,4.90
2022-09-04T19:34:46.807Z,20.70
2022-09-04T19:38:41.840Z,10.40
2022-09-04T19:46:04.886Z,4.50
2022-09-04T19:46:08.898Z,6.10
2022-09-04T19:46:59.583Z,4.00
2022-09-04T19:52:10.563Z,3.60
2022-09-04T19:53:35.411Z,3.60
2022-09-04T19:55:47.969Z,4.10
2022-09-04T19:58:20.498Z,3.60
2022-09-04T20:01:00.299Z,3.80
2022-09-04T20:03:33.428Z,4.40
2022-09-04T20:06:25.056Z,4.10
2022-09-04T20:09:11.531Z,3.60
2022-09-04T20:11:46.049Z,4.10
2022-09-04T20:14:39.918Z,3.70
2022-09-04T20:17:32.692Z,3.30
2022-09-04T20:20:28.199Z,3.50
2022-09-04T20:23:00.364Z,3.80
2022-09-04T20:26:04.967Z,4.00
2022-09-04T20:29:06.200Z,4.10
2022-09-04T20:31:46.617Z,4.30
2022-09-04T20:34:59.115Z,4.10
2022-09-04T20:37:46.879Z,4.10
2022-09-04T20:40:34.842Z,4.10
2022-09-04T20:43:01.819Z,3.90
2022-09-04T20:48:34.563Z,4.60
2022-09-04T20:52:59.375Z,4.40
2022-09-04T20:53:05.430Z,4.20
2022-09-04T20:55:14.537Z,4.40
2022-09-04T21:03:05.648Z,4.70
2022-09-04T21:03:07.691Z,5.00
2022-09-04T21:04:11.275Z,4.50
2022-09-04T21:06:51.951Z,4.00
2022-09-04T21:09:53.372Z,4.00
2022-09-04T21:12:38.689Z,4.50
2022-09-04T21:15:22.734Z,4.80
2022-09-04T21:18:15.346Z,4.90
2022-09-04T21:20:59.834Z,4.50
2022-09-04T21:23:53.032Z,4.60
2022-09-04T21:26:57.020Z,5.00
2022-09-04T21:29:33.840Z,3.90
2022-09-04T21:32:38.714Z,4.40
2022-09-04T21:35:19.818Z,4.90
2022-09-04T21:38:22.774Z,5.00
2022-09-04T21:41:25.055Z,4.70
2022-09-04T21:44:10.740Z,4.60
2022-09-04T21:46:40.426Z,4.30
2022-09-04T21:49:29.236Z,5.30
2022-09-04T21:52:27.698Z,4.30
2022-09-04T21:59:36.698Z,5.30
2022-09-04T22:02:26.171Z,5.20
2022-09-04T22:02:44.604Z,4.80
2022-09-04T22:04:56.240Z,4.70
2022-09-04T22:12:16.926Z,5.10
2022-09-04T22:13:39.584Z,5.40
2022-09-04T22:13:53.767Z,4.60
2022-09-04T22:17:02.467Z,5.00
2022-09-04T22:19:44.567Z,4.80
2022-09-04T22:22:36.190Z,4.40
2022-09-04T22:25:05.993Z,5.20
2022-09-04T22:28:08.442Z,4.80
2022-09-04T22:30:48.829Z,4.60
2022-09-04T22:34:14.401Z,4.90
2022-09-04T22:37:12.048Z,5.00
2022-09-04T22:40:08.902Z,4.80
2022-09-04T22:42:45.794Z,4.70
2022-09-04T22:45:34.804Z,4.90
2022-09-04T22:48:17.123Z,5.50
2022-09-04T22:51:10.213Z,5.20
2022-09-04T22:53:48.685Z,5.40
2022-09-04T22:56:28.843Z,4.80
2022-09-04T22:59:20.416Z,4.50
2022-09-04T23:02:14.087Z,5.30
2022-09-04T23:05:03.462Z,6.00
2022-09-04T23:13:43.460Z,5.60
2022-09-04T23:14:02.711Z,5.60
2022-09-04T23:14:06.445Z,5.40
2022-09-04T23:16:54.221Z,5.60
2022-09-04T23:26:37.225Z,5.40
2022-09-04T23:26:47.727Z,5.70
2022-09-04T23:26:52.822Z,5.30
2022-09-04T23:29:44.880Z,5.30
2022-09-04T23:32:38.661Z,5.50
2022-09-04T23:35:57.334Z,5.40
2022-09-04T23:38:58.465Z,5.60
2022-09-04T23:42:05.493Z,4.60
2022-09-04T23:45:11.763Z,4.90
2022-09-04T23:48:18.802Z,5.20
2022-09-04T23:51:37.367Z,5.90
2022-09-04T23:54:51.210Z,5.80
2022-09-04T23:57:42.347Z,5.40
